createdAt,value
2022-08-22T00:01:04.284Z,5.20
2022-08-22T00:02:58.276Z,4.50
2022-08-22T00:04:04.535Z,6.55
2022-08-22T00:07:00.807Z,7.13
2022-08-22T00:09:57.412Z,4.35
2022-08-22T00:12:50.946Z,8.55
2022-08-22T00:15:49.399Z,7.95
2022-08-22T00:18:41.411Z,9.10
2022-08-22T00:21:36.210Z,6.97
2022-08-22T00:24:31.837Z,5.63
2022-08-22T00:27:24.549Z,5.32
2022-08-22T00:30:16.054Z,6.38
2022-08-22T00:33:18.087Z,5.68
2022-08-22T00:36:17.067Z,4.22
2022-08-22T00:39:13.409Z,5.50
2022-08-22T00:42:31.586Z,4.47
2022-08-22T00:45:38.176Z,10.40
2022-08-22T00:48:49.259Z,7.35
2022-08-22T00:55:19.996Z,5.90
2022-08-22T00:58:27.502Z,5.55
2022-08-22T01:01:21.745Z,4.55
2022-08-22T01:04:34.289Z,8.95
2022-08-22T01:07:38.372Z,8.27
2022-08-22T01:10:45.981Z,5.68
2022-08-22T01:13:49.209Z,6.55
2022-08-22T01:17:01.013Z,8.80
2022-08-22T01:20:21.892Z,8.35
2022-08-22T01:24:03.387Z,6.60
2022-08-22T01:27:21.389Z,5.95
2022-08-22T01:30:42.459Z,6.07
2022-08-22T01:34:13.143Z,9.73
2022-08-22T01:37:39.619Z,7.80
2022-08-22T01:41:06.220Z,8.55
2022-08-22T01:44:07.669Z,9.75
2022-08-22T01:47:00.528Z,6.35
2022-08-22T01:49:55.063Z,6.47
2022-08-22T01:52:48.828Z,5.60
2022-08-22T01:55:45.830Z,6.47
2022-08-22T01:58:37.009Z,6.28
2022-08-22T02:01:41.296Z,6.15
2022-08-22T02:04:41.517Z,5.05
2022-08-22T02:07:41.165Z,7.25
2022-08-22T02:10:46.123Z,9.00
2022-08-22T02:13:55.341Z,5.75
2022-08-22T02:16:46.986Z,6.25
2022-08-22T02:19:40.958Z,7.47
2022-08-22T02:22:38.017Z,5.50
2022-08-22T02:25:36.107Z,5.85
2022-08-22T02:28:35.775Z,7.05
2022-08-22T02:31:33.938Z,8.93
2022-08-22T02:34:40.555Z,4.93
2022-08-22T02:37:36.607Z,7.65
2022-08-22T02:40:31.623Z,8.27
2022-08-22T02:43:24.961Z,7.78
2022-08-22T02:46:24.153Z,11.05
2022-08-22T02:49:17.573Z,5.75
2022-08-22T02:52:13.079Z,6.28
2022-08-22T02:55:08.697Z,8.35
2022-08-22T02:58:04.168Z,9.15
2022-08-22T03:01:15.902Z,5.70
2022-08-22T03:04:38.377Z,6.32
2022-08-22T03:07:40.634Z,6.45
2022-08-22T03:10:35.648Z,7.25
2022-08-22T03:13:34.005Z,5.38
2022-08-22T03:16:29.281Z,8.82
2022-08-22T03:19:21.511Z,4.57
2022-08-22T03:22:17.311Z,7.35
2022-08-22T03:25:13.875Z,7.70
2022-08-22T03:28:07.177Z,5.15
2022-08-22T03:31:01.256Z,6.20
2022-08-22T03:34:20.244Z,5.82
2022-08-22T03:37:16.851Z,12.00
2022-08-22T03:40:21.203Z,6.22
2022-08-22T03:43:35.643Z,8.48
2022-08-22T03:46:57.171Z,9.82
2022-08-22T03:50:19.892Z,8.52
2022-08-22T03:53:50.283Z,8.20
2022-08-22T03:57:00.465Z,6.47
2022-08-22T04:00:07.975Z,8.60
2022-08-22T04:03:27.102Z,8.38
2022-08-22T04:06:56.302Z,7.07
2022-08-22T04:10:22.073Z,6.45
2022-08-22T04:13:34.955Z,6.85
2022-08-22T04:16:57.130Z,7.13
2022-08-22T04:20:03.604Z,7.63
2022-08-22T04:23:27.743Z,7.57
2022-08-22T04:26:19.890Z,7.97
2022-08-22T04:29:16.953Z,9.60
2022-08-22T04:32:14.494Z,8.43
2022-08-22T04:35:10.511Z,7.15
2022-08-22T04:38:05.675Z,7.03
2022-08-22T04:41:03.948Z,6.32
2022-08-22T04:43:58.748Z,7.10
2022-08-22T04:46:52.843Z,12.00
2022-08-22T04:49:50.165Z,6.78
2022-08-22T04:52:53.324Z,11.30
2022-08-22T04:55:52.861Z,9.75
2022-08-22T04:58:47.558Z,7.32
2022-08-22T05:01:42.946Z,9.77
2022-08-22T05:04:35.670Z,9.15
2022-08-22T05:07:29.146Z,10.05
2022-08-22T05:10:27.215Z,9.27
2022-08-22T05:13:20.312Z,18.83
2022-08-22T05:16:14.693Z,10.48
2022-08-22T05:19:07.302Z,8.10
2022-08-22T05:21:56.928Z,10.57
2022-08-22T05:24:50.357Z,11.18
2022-08-22T05:27:45.134Z,9.32
2022-08-22T05:30:36.068Z,7.68
2022-08-22T05:33:30.964Z,7.82
2022-08-22T05:36:23.877Z,8.63
2022-08-22T05:39:15.603Z,5.40
2022-08-22T05:42:12.541Z,8.60
2022-08-22T05:45:02.425Z,7.10
2022-08-22T05:47:54.379Z,8.32
2022-08-22T05:50:49.213Z,6.82
2022-08-22T05:53:42.387Z,10.80
2022-08-22T05:56:39.791Z,7.05
2022-08-22T05:59:31.889Z,7.50
2022-08-22T06:02:23.727Z,10.60
2022-08-22T06:05:13.367Z,9.52
2022-08-22T06:08:07.456Z,6.97
2022-08-22T06:10:59.220Z,7.38
2022-08-22T06:13:52.955Z,10.07
2022-08-22T06:16:48.942Z,8.90
2022-08-22T06:19:42.252Z,11.02
2022-08-22T06:22:33.847Z,8.90
2022-08-22T06:25:27.447Z,8.38
2022-08-22T06:28:22.401Z,10.30
2022-08-22T06:31:16.109Z,6.63
2022-08-22T06:34:12.443Z,10.30
2022-08-22T06:37:05.395Z,7.78
2022-08-22T06:39:55.989Z,12.18
2022-08-22T06:42:47.172Z,16.60
2022-08-22T06:45:37.020Z,10.05
2022-08-22T06:48:25.585Z,10.00
2022-08-22T06:51:17.683Z,10.88
2022-08-22T06:54:12.261Z,11.23
2022-08-22T06:57:00.847Z,7.85
2022-08-22T06:59:49.631Z,13.10
2022-08-22T07:02:42.294Z,9.70
2022-08-22T07:05:36.907Z,8.60
2022-08-22T07:08:29.750Z,11.00
2022-08-22T07:11:27.583Z,13.05
2022-08-22T07:14:18.084Z,8.38
2022-08-22T07:17:09.245Z,9.60
2022-08-22T07:20:01.066Z,11.07
2022-08-22T07:22:55.071Z,11.68
2022-08-22T07:25:54.126Z,9.98
2022-08-22T07:28:50.819Z,9.63
2022-08-22T07:31:46.562Z,13.32
2022-08-22T07:34:51.951Z,13.35
2022-08-22T07:37:54.573Z,12.65
2022-08-22T07:40:55.556Z,15.38
2022-08-22T07:43:49.304Z,10.95
2022-08-22T07:46:43.204Z,9.88
2022-08-22T07:49:36.917Z,15.00
2022-08-22T07:52:26.130Z,14.70
2022-08-22T07:55:19.034Z,12.13
2022-08-22T07:58:11.249Z,12.90
2022-08-22T08:00:59.808Z,11.02
2022-08-22T08:03:53.385Z,13.35
2022-08-22T08:06:42.287Z,14.13
2022-08-22T08:09:34.135Z,13.23
2022-08-22T08:12:30.891Z,10.10
2022-08-22T08:15:23.026Z,7.60
2022-08-22T08:18:19.178Z,12.20
2022-08-22T08:21:10.801Z,8.60
2022-08-22T08:24:01.698Z,12.10
2022-08-22T08:27:13.624Z,7.82
2022-08-22T08:30:07.097Z,13.73
2022-08-22T08:33:24.183Z,9.25
2022-08-22T08:36:16.764Z,14.82
2022-08-22T08:39:14.309Z,13.80
2022-08-22T08:42:23.197Z,7.57
2022-08-22T08:45:32.329Z,9.73
2022-08-22T08:48:47.196Z,8.93
2022-08-22T08:52:02.668Z,9.68
2022-08-22T08:55:02.430Z,8.88
2022-08-22T08:58:33.618Z,9.68
2022-08-22T09:01:54.079Z,8.90
2022-08-22T09:05:19.264Z,8.82
2022-08-22T09:08:45.603Z,7.28
2022-08-22T09:12:10.715Z,10.18
2022-08-22T09:15:32.059Z,6.38
2022-08-22T09:18:49.709Z,6.35
2022-08-22T09:22:50.105Z,5.50
2022-08-22T09:25:44.301Z,9.93
2022-08-22T09:28:39.852Z,11.75
2022-08-22T09:31:47.581Z,7.70
2022-08-22T09:34:56.599Z,8.35
2022-08-22T09:38:08.112Z,6.90
2022-08-22T09:41:06.159Z,7.75
2022-08-22T09:44:04.983Z,7.15
2022-08-22T09:47:07.947Z,3.53
2022-08-22T09:50:08.672Z,5.50
2022-08-22T09:53:09.133Z,4.82
2022-08-22T09:56:11.761Z,4.15
2022-08-22T09:59:09.884Z,4.03
2022-08-22T10:02:06.148Z,3.17
2022-08-22T10:05:13.087Z,4.10
2022-08-22T10:08:34.378Z,5.70
2022-08-22T10:11:27.167Z,9.35
2022-08-22T10:14:22.446Z,8.27
2022-08-22T10:17:21.861Z,4.35
2022-08-22T10:20:20.863Z,7.70
2022-08-22T10:23:18.583Z,5.28
2022-08-22T10:26:30.266Z,3.78
2022-08-22T10:29:39.679Z,3.03
2022-08-22T10:32:37.079Z,4.38
2022-08-22T10:35:33.982Z,7.43
2022-08-22T10:38:26.542Z,2.55
2022-08-22T10:41:27.008Z,5.22
2022-08-22T10:47:13.209Z,5.90
2022-08-22T10:50:10.896Z,4.90
2022-08-22T10:53:16.775Z,7.38
2022-08-22T10:56:12.815Z,4.45
2022-08-22T10:59:13.141Z,4.57
2022-08-22T11:05:29.226Z,2.90
2022-08-22T11:08:45.156Z,3.58
2022-08-22T11:11:44.707Z,4.00
2022-08-22T11:15:05.566Z,5.20
2022-08-22T11:18:18.890Z,4.50
2022-08-22T11:21:11.607Z,3.25
2022-08-22T11:24:08.688Z,3.10
2022-08-22T11:27:20.832Z,2.92
2022-08-22T11:30:18.514Z,3.30
2022-08-22T11:33:32.454Z,2.85
2022-08-22T11:36:39.070Z,3.17
2022-08-22T11:39:36.023Z,3.65
2022-08-22T11:42:34.521Z,2.90
2022-08-22T11:45:29.642Z,3.00
2022-08-22T11:48:25.625Z,3.22
2022-08-22T11:51:24.990Z,6.80
2022-08-22T11:54:22.152Z,6.75
2022-08-22T11:57:30.029Z,7.15
2022-08-22T12:00:27.269Z,3.47
2022-08-22T12:03:44.007Z,10.70
2022-08-22T12:06:56.015Z,4.68
2022-08-22T12:09:51.908Z,3.40
2022-08-22T12:12:55.340Z,5.18
2022-08-22T12:15:54.786Z,4.47
2022-08-22T12:18:52.982Z,4.40
2022-08-22T12:22:32.643Z,2.70
2022-08-22T12:25:36.333Z,4.63
2022-08-22T12:28:39.960Z,4.53
2022-08-22T12:31:37.929Z,4.00
2022-08-22T12:34:36.849Z,4.57
2022-08-22T12:37:34.102Z,2.67
2022-08-22T12:40:51.312Z,6.03
2022-08-22T12:43:54.276Z,4.50
2022-08-22T12:46:56.635Z,2.53
2022-08-22T12:50:09.152Z,3.33
2022-08-22T12:53:20.785Z,4.60
2022-08-22T12:56:20.627Z,3.75
2022-08-22T12:59:24.433Z,3.60
2022-08-22T13:02:18.037Z,2.38
2022-08-22T13:05:19.895Z,2.40
2022-08-22T13:08:12.678Z,3.08
2022-08-22T13:11:03.649Z,4.53
2022-08-22T13:14:00.941Z,5.50
2022-08-22T13:16:52.664Z,3.67
2022-08-22T13:20:04.406Z,6.10
2022-08-22T13:22:54.596Z,3.75
2022-08-22T13:26:10.499Z,4.30
2022-08-22T13:29:23.932Z,3.17
2022-08-22T13:32:23.477Z,3.42
2022-08-22T13:35:24.637Z,5.32
2022-08-22T13:38:18.177Z,2.47
2022-08-22T13:41:20.123Z,3.25
2022-08-22T13:44:20.488Z,3.22
2022-08-22T13:47:14.646Z,4.65
2022-08-22T13:50:12.363Z,4.57
2022-08-22T13:53:08.031Z,4.30
2022-08-22T13:56:04.041Z,5.25
2022-08-22T13:58:58.028Z,4.53
2022-08-22T14:01:53.013Z,2.30
2022-08-22T14:04:43.427Z,2.28
2022-08-22T14:07:37.175Z,3.67
2022-08-22T14:10:30.298Z,5.10
2022-08-22T14:13:42.113Z,4.60
2022-08-22T14:16:35.393Z,2.65
2022-08-22T14:19:34.957Z,7.85
2022-08-22T14:22:55.632Z,3.72
2022-08-22T14:25:47.132Z,8.40
2022-08-22T14:28:36.521Z,3.38
2022-08-22T14:31:27.717Z,6.10
2022-08-22T14:34:17.152Z,5.20
2022-08-22T14:37:15.230Z,5.28
2022-08-22T14:40:12.036Z,5.13
2022-08-22T14:43:07.355Z,2.85
2022-08-22T14:46:02.230Z,4.55
2022-08-22T14:49:13.520Z,2.78
2022-08-22T14:52:08.791Z,5.75
2022-08-22T14:55:08.737Z,4.43
2022-08-22T14:57:59.978Z,3.83
2022-08-22T15:00:55.161Z,8.07
2022-08-22T15:03:44.791Z,2.78
2022-08-22T15:06:38.757Z,3.92
2022-08-22T15:09:40.373Z,4.35
2022-08-22T15:12:32.715Z,5.70
2022-08-22T15:15:49.794Z,6.32
2022-08-22T15:18:51.601Z,4.00
2022-08-22T15:21:41.471Z,3.65
2022-08-22T15:24:30.292Z,3.15
2022-08-22T15:27:20.212Z,3.38
2022-08-22T15:30:18.830Z,3.53
2022-08-22T15:33:12.171Z,3.40
2022-08-22T15:36:15.831Z,3.47
2022-08-22T15:39:29.517Z,3.47
2022-08-22T15:42:26.360Z,3.08
2022-08-22T15:45:33.692Z,4.55
2022-08-22T15:48:30.011Z,3.47
2022-08-22T15:51:36.784Z,3.60
2022-08-22T15:54:29.402Z,2.88
2022-08-22T15:57:23.506Z,2.05
2022-08-22T16:00:28.206Z,2.28
2022-08-22T16:03:27.984Z,3.25
2022-08-22T16:06:46.703Z,2.38
2022-08-22T16:09:43.522Z,3.97
2022-08-22T16:12:37.149Z,3.45
2022-08-22T16:15:57.196Z,6.78
2022-08-22T16:22:16.273Z,5.40
2022-08-22T16:25:10.580Z,4.53
2022-08-22T16:27:59.576Z,7.65
2022-08-22T16:30:48.523Z,2.80
2022-08-22T16:33:42.587Z,2.05
2022-08-22T16:36:47.359Z,3.83
2022-08-22T16:39:39.845Z,1.52
2022-08-22T16:42:36.573Z,2.67
2022-08-22T16:45:35.745Z,2.20
2022-08-22T16:48:31.609Z,3.60
2022-08-22T16:51:21.224Z,2.72
2022-08-22T16:54:13.724Z,5.10
2022-08-22T16:57:14.746Z,4.40
2022-08-22T17:00:12.103Z,2.35
2022-08-22T17:03:11.466Z,5.18
2022-08-22T17:06:13.805Z,3.47
2022-08-22T17:09:16.372Z,3.13
2022-08-22T17:12:20.803Z,3.90
2022-08-22T17:15:23.158Z,2.92
2022-08-22T17:18:36.442Z,4.65
2022-08-22T17:21:29.845Z,3.03
2022-08-22T17:24:32.270Z,4.40
2022-08-22T17:27:30.299Z,3.88
2022-08-22T17:30:28.305Z,4.20
2022-08-22T17:33:27.991Z,4.22
2022-08-22T17:36:27.603Z,4.18
2022-08-22T17:39:31.072Z,5.88
2022-08-22T17:42:37.569Z,3.95
2022-08-22T17:45:36.187Z,3.35
2022-08-22T17:48:30.990Z,3.78
2022-08-22T17:51:28.819Z,4.80
2022-08-22T17:54:22.940Z,4.72
2022-08-22T17:57:29.315Z,8.10
2022-08-22T18:00:25.624Z,3.50
2022-08-22T18:03:23.269Z,3.55
2022-08-22T18:06:18.125Z,2.88
2022-08-22T18:09:13.994Z,4.15
2022-08-22T18:12:07.565Z,2.40
2022-08-22T18:15:03.875Z,2.53
2022-08-22T18:17:56.753Z,2.33
2022-08-22T18:20:51.560Z,2.90
2022-08-22T18:23:45.115Z,3.72
2022-08-22T18:26:39.237Z,3.78
2022-08-22T18:29:40.073Z,8.32
2022-08-22T18:32:34.995Z,5.57
2022-08-22T18:35:29.346Z,4.43
2022-08-22T18:38:24.199Z,4.43
2022-08-22T18:41:17.113Z,3.20
2022-08-22T18:44:12.457Z,7.57
2022-08-22T18:47:03.012Z,5.20
2022-08-22T18:52:44.457Z,3.60
2022-08-22T18:55:50.331Z,5.20
2022-08-22T18:59:05.873Z,3.67
2022-08-22T19:02:10.696Z,6.63
2022-08-22T19:05:28.880Z,4.50
2022-08-22T19:08:33.689Z,7.25
2022-08-22T19:11:39.020Z,5.72
2022-08-22T19:14:49.748Z,4.35
2022-08-22T19:17:59.107Z,2.25
2022-08-22T19:21:35.752Z,2.03
2022-08-22T19:24:37.652Z,4.53
2022-08-22T19:27:31.081Z,3.37
2022-08-22T19:30:43.961Z,3.75
2022-08-22T19:33:41.707Z,6.65
2022-08-22T19:36:33.391Z,2.60
2022-08-22T19:39:54.514Z,5.68
2022-08-22T19:42:46.785Z,3.88
2022-08-22T19:45:40.765Z,3.70
2022-08-22T19:48:32.930Z,3.60
2022-08-22T19:51:28.844Z,2.67
2022-08-22T19:54:22.517Z,3.53
2022-08-22T19:57:19.418Z,7.03
2022-08-22T20:00:11.684Z,2.92
2022-08-22T20:03:07.382Z,3.35
2022-08-22T20:06:05.964Z,4.28
2022-08-22T20:09:12.626Z,4.03
2022-08-22T20:12:15.287Z,7.18
2022-08-22T20:15:16.381Z,4.15
2022-08-22T20:18:12.456Z,2.60
2022-08-22T20:21:13.045Z,2.60
2022-08-22T20:24:04.312Z,3.47
2022-08-22T20:27:13.311Z,4.15
2022-08-22T20:30:09.034Z,2.03
2022-08-22T20:33:01.929Z,2.08
2022-08-22T20:35:55.102Z,3.25
2022-08-22T20:38:55.616Z,3.47
2022-08-22T20:41:49.190Z,2.22
2022-08-22T20:44:41.545Z,2.92
2022-08-22T20:47:41.373Z,4.82
2022-08-22T20:50:31.376Z,3.92
2022-08-22T20:53:21.336Z,4.00
2022-08-22T20:56:10.551Z,2.38
2022-08-22T20:59:01.171Z,7.05
2022-08-22T21:01:55.513Z,3.08
2022-08-22T21:04:52.972Z,3.08
2022-08-22T21:07:46.587Z,4.30
2022-08-22T21:10:54.451Z,5.13
2022-08-22T21:13:42.654Z,4.75
2022-08-22T21:16:33.115Z,6.93
2022-08-22T21:19:26.090Z,2.33
2022-08-22T21:22:18.353Z,3.83
2022-08-22T21:25:07.100Z,4.80
2022-08-22T21:27:55.352Z,3.40
2022-08-22T21:30:43.555Z,4.95
2022-08-22T21:33:35.571Z,4.13
2022-08-22T21:36:26.129Z,3.58
2022-08-22T21:39:20.867Z,4.35
2022-08-22T21:42:17.691Z,4.32
2022-08-22T21:45:08.552Z,4.53
2022-08-22T21:47:56.990Z,4.85
2022-08-22T21:50:45.247Z,4.95
2022-08-22T21:53:33.415Z,2.70
2022-08-22T21:56:30.235Z,4.00
2022-08-22T21:59:25.325Z,4.30
2022-08-22T22:02:37.151Z,8.82
2022-08-22T22:05:25.827Z,3.95
2022-08-22T22:08:14.126Z,7.43
2022-08-22T22:11:04.771Z,5.97
2022-08-22T22:13:57.929Z,4.82
2022-08-22T22:16:46.125Z,3.90
2022-08-22T22:19:34.381Z,4.75
2022-08-22T22:22:22.571Z,5.65
2022-08-22T22:25:39.624Z,3.28
2022-08-22T22:28:22.373Z,4.75
2022-08-22T22:31:11.868Z,7.47
2022-08-22T22:34:00.064Z,5.60
2022-08-22T22:36:48.301Z,4.72
2022-08-22T22:39:36.870Z,5.05
2022-08-22T22:42:25.027Z,3.67
2022-08-22T22:45:13.234Z,2.60
2022-08-22T22:48:02.885Z,3.10
2022-08-22T22:50:51.113Z,5.65
2022-08-22T22:53:43.063Z,4.07
2022-08-22T22:56:32.123Z,3.13
2022-08-22T22:59:24.623Z,3.97
2022-08-22T23:02:16.492Z,5.45
2022-08-22T23:05:07.162Z,4.93
2022-08-22T23:07:55.440Z,5.63
2022-08-22T23:10:43.657Z,5.45
2022-08-22T23:13:31.846Z,7.05
2022-08-22T23:16:27.911Z,5.75
2022-08-22T23:19:18.487Z,4.45
2022-08-22T23:22:09.395Z,7.85
2022-08-22T23:24:57.847Z,4.25
2022-08-22T23:27:48.817Z,5.40
2022-08-22T23:30:40.943Z,3.72
2022-08-22T23:33:29.138Z,5.47
2022-08-22T23:36:21.265Z,5.70
2022-08-22T23:39:11.703Z,4.20
2022-08-22T23:42:01.238Z,6.82
2022-08-22T23:44:49.441Z,4.70
2022-08-22T23:47:37.657Z,6.07
2022-08-22T23:50:25.870Z,4.10
2022-08-22T23:53:14.049Z,5.40
2022-08-22T23:56:19.306Z,5.00
2022-08-22T23:59:11.569Z,6.20
